Portada
METAR-TAF:

METAR-TAF

Aeroports :

Shawbury, Anglaterra

latitud: 52-48N, longitud: 002-40W, altitud: 76 m

Observació

L'informe es va fer fa 1 hora i 3 minuts, a les 21:50 UTC
Vent 7 kt del Oest/Sud-Oest
Temperatura 2°C
Humitat 80%
Pressió 1012 hPa
Visibilitat 10 km o més

METAR: EGOS 272150Z AUTO 25007KT 9999 NCD 02/M01 Q1012

Hora: 22:53 (22:53 UTC)

Pronòstic

L'informe es va fer fa 9 hores i 22 minuts, a les 13:31 UTC
Pronòstic vàlid del 27 a les 15 UTC al 27 a les 18 UTC
Vent 18 kt del Nord-Oest amb ràfegues de 28 kt
Visibilitat 10 km o més
Escasses núvols a una alçada de 2500 ft
Evolucionant progressivament
l' 27 a les 15 UTC al 27 a les 17 UTC
Vent 12 kt del Oest

TAF: EGOS 271331Z 2715/2718 31018G28KT 9999 FEW025 BECMG 2715/2717 27012KT

Observacions i pronòstics meteorològics de més de 4000 aeroports (METAR i TAF).

Les estacions disponibles són els punts grocs i vermells al mapa.

Posi el ratolí al punt desitjat per veure el nom de l'estació.

Feu clic per veure les observacions i els pronòstics meteorològics.

Per canviar el mapa: feu clic els botons verds amb una creu de color negre per apropar; al botó verd amb un guió per allunyar la imatge; o en les fletxes verdes per a mapes adjacents.


METAR-TAF: